CLH876 EDDF-LFSB
Flight info
| Callsign | CLH876 |
|---|---|
| Flight time | 0h 42m |
| Altitude | 22000 |
| Route | ANEKI2L/18 ANEKI Y163 PABLA T715 RIGVI |
| Aircraft | RJ85/M-SDFGIRWY/LB1 |
Departure
| Time | 2026-04-14 14:21 |
|---|---|
| Airport | Frankfurt Main Airport (EDDF) |
Arrival
| Time | 2026-04-14 15:03 |
|---|---|
| Airport | EuroAirport Basel–Mulhouse–Freiburg (LFSB) |
| Time | Latitude | Longitude | Altitude | Speed | Heading |
|---|---|---|---|---|---|
| 2026-04-14 13:50 | 50.04937 | 8.59782 | 345 ft | 0 kts | 298° |
| 2026-04-14 14:04 | 50.04930 | 8.59801 | 353 ft | 4 kts | 297° |
| 2026-04-14 14:04 | 50.04919 | 8.59839 | 345 ft | 3 kts | 289° |
| 2026-04-14 14:04 | 50.04917 | 8.59878 | 349 ft | 2 kts | 252° |
| 2026-04-14 14:04 | 50.04918 | 8.59883 | 345 ft | 4 kts | 249° |
| 2026-04-14 14:09 | 50.04918 | 8.59882 | 353 ft | 1 kts | 249° |
| 2026-04-14 14:09 | 50.04907 | 8.59839 | 345 ft | 6 kts | 249° |
| 2026-04-14 14:09 | 50.04889 | 8.59760 | 350 ft | 9 kts | 250° |
| 2026-04-14 14:09 | 50.04863 | 8.59651 | 354 ft | 12 kts | 250° |
| 2026-04-14 14:10 | 50.04850 | 8.59592 | 345 ft | 2 kts | 250° |
| 2026-04-14 14:10 | 50.04841 | 8.59558 | 345 ft | 5 kts | 249° |
| 2026-04-14 14:10 | 50.04794 | 8.59544 | 348 ft | 12 kts | 150° |
| 2026-04-14 14:10 | 50.04728 | 8.59608 | 350 ft | 11 kts | 159° |
| 2026-04-14 14:11 | 50.04659 | 8.59630 | 345 ft | 10 kts | 176° |
| 2026-04-14 14:11 | 50.04595 | 8.59627 | 351 ft | 9 kts | 183° |
| 2026-04-14 14:11 | 50.04538 | 8.59625 | 352 ft | 8 kts | 177° |
| 2026-04-14 14:11 | 50.04524 | 8.59626 | 345 ft | 0 kts | 177° |
| 2026-04-14 14:12 | 50.04501 | 8.59624 | 348 ft | 10 kts | 189° |
| 2026-04-14 14:12 | 50.04446 | 8.59492 | 355 ft | 19 kts | 261° |
| 2026-04-14 14:12 | 50.04399 | 8.59275 | 351 ft | 23 kts | 248° |
| 2026-04-14 14:12 | 50.04343 | 8.59030 | 348 ft | 24 kts | 251° |
| 2026-04-14 14:13 | 50.04286 | 8.58803 | 350 ft | 22 kts | 249° |
| 2026-04-14 14:13 | 50.04240 | 8.58591 | 348 ft | 20 kts | 250° |
| 2026-04-14 14:13 | 50.04194 | 8.58399 | 352 ft | 18 kts | 248° |
| 2026-04-14 14:13 | 50.04152 | 8.58226 | 345 ft | 17 kts | 250° |
| 2026-04-14 14:14 | 50.04113 | 8.58061 | 347 ft | 16 kts | 250° |
| 2026-04-14 14:14 | 50.04073 | 8.57897 | 345 ft | 16 kts | 249° |
| 2026-04-14 14:14 | 50.04030 | 8.57731 | 350 ft | 17 kts | 248° |
| 2026-04-14 14:14 | 50.03988 | 8.57561 | 347 ft | 17 kts | 249° |
| 2026-04-14 14:15 | 50.03949 | 8.57387 | 350 ft | 17 kts | 251° |
| 2026-04-14 14:15 | 50.03906 | 8.57205 | 345 ft | 19 kts | 249° |
| 2026-04-14 14:15 | 50.03857 | 8.57004 | 350 ft | 21 kts | 249° |
| 2026-04-14 14:15 | 50.03805 | 8.56787 | 345 ft | 22 kts | 250° |
| 2026-04-14 14:16 | 50.03751 | 8.56552 | 351 ft | 24 kts | 250° |
| 2026-04-14 14:16 | 50.03691 | 8.56305 | 351 ft | 25 kts | 249° |
| 2026-04-14 14:16 | 50.03628 | 8.56046 | 348 ft | 26 kts | 250° |
| 2026-04-14 14:17 | 50.03509 | 8.55540 | 345 ft | 23 kts | 250° |
| 2026-04-14 14:17 | 50.03457 | 8.55320 | 348 ft | 21 kts | 250° |
| 2026-04-14 14:17 | 50.03407 | 8.55121 | 348 ft | 19 kts | 249° |
| 2026-04-14 14:17 | 50.03363 | 8.54941 | 349 ft | 17 kts | 249° |
| 2026-04-14 14:18 | 50.03325 | 8.54777 | 349 ft | 15 kts | 250° |
| 2026-04-14 14:18 | 50.03286 | 8.54615 | 349 ft | 17 kts | 250° |
| 2026-04-14 14:18 | 50.03240 | 8.54418 | 349 ft | 22 kts | 250° |
| 2026-04-14 14:18 | 50.03180 | 8.54164 | 349 ft | 28 kts | 250° |
| 2026-04-14 14:19 | 50.03108 | 8.53858 | 348 ft | 32 kts | 250° |
| 2026-04-14 14:19 | 50.03032 | 8.53551 | 350 ft | 26 kts | 250° |
| 2026-04-14 14:19 | 50.02987 | 8.53358 | 349 ft | 18 kts | 250° |
| 2026-04-14 14:19 | 50.02947 | 8.53183 | 353 ft | 16 kts | 257° |
| 2026-04-14 14:20 | 50.02943 | 8.53014 | 350 ft | 15 kts | 269° |
| 2026-04-14 14:20 | 50.02941 | 8.52847 | 353 ft | 16 kts | 269° |
| 2026-04-14 14:20 | 50.02939 | 8.52677 | 350 ft | 15 kts | 269° |
| 2026-04-14 14:20 | 50.02862 | 8.52601 | 349 ft | 31 kts | 178° |
| 2026-04-14 14:21 | 50.02364 | 8.52607 | 345 ft | 110 kts | 180° |
| 2026-04-14 14:21 | 50.01410 | 8.52611 | 558 ft | 150 kts | 180° |
| 2026-04-14 14:21 | 50.00403 | 8.52612 | 1388 ft | 141 kts | 178° |
| 2026-04-14 14:21 | 49.99420 | 8.52717 | 2159 ft | 143 kts | 175° |
| 2026-04-14 14:22 | 49.98420 | 8.52842 | 2904 ft | 146 kts | 177° |
| 2026-04-14 14:22 | 49.97315 | 8.52949 | 3266 ft | 174 kts | 177° |
| 2026-04-14 14:22 | 49.96038 | 8.53062 | 3730 ft | 193 kts | 177° |
| 2026-04-14 14:22 | 49.94587 | 8.53183 | 3952 ft | 229 kts | 177° |
| 2026-04-14 14:23 | 49.92928 | 8.53296 | 3942 ft | 244 kts | 178° |
| 2026-04-14 14:23 | 49.91203 | 8.53417 | 4151 ft | 257 kts | 177° |
| 2026-04-14 14:23 | 49.89473 | 8.53534 | 5625 ft | 242 kts | 177° |
| 2026-04-14 14:23 | 49.87788 | 8.53644 | 6786 ft | 244 kts | 177° |
| 2026-04-14 14:24 | 49.86066 | 8.53757 | 7627 ft | 251 kts | 177° |
| 2026-04-14 14:24 | 49.84313 | 8.53873 | 8457 ft | 253 kts | 178° |
| 2026-04-14 14:24 | 49.82544 | 8.53977 | 9303 ft | 256 kts | 177° |
| 2026-04-14 14:24 | 49.80753 | 8.54086 | 10172 ft | 258 kts | 178° |
| 2026-04-14 14:25 | 49.78958 | 8.54182 | 11037 ft | 261 kts | 178° |
| 2026-04-14 14:25 | 49.77090 | 8.54182 | 11564 ft | 276 kts | 183° |
| 2026-04-14 14:25 | 49.75116 | 8.53976 | 12024 ft | 293 kts | 186° |
| 2026-04-14 14:25 | 49.73029 | 8.53681 | 12398 ft | 309 kts | 187° |
| 2026-04-14 14:26 | 49.70841 | 8.53340 | 12713 ft | 323 kts | 187° |
| 2026-04-14 14:26 | 49.68577 | 8.52987 | 13096 ft | 330 kts | 186° |
| 2026-04-14 14:26 | 49.66283 | 8.52641 | 13603 ft | 332 kts | 186° |
| 2026-04-14 14:26 | 49.63972 | 8.52321 | 14063 ft | 335 kts | 186° |
| 2026-04-14 14:27 | 49.61640 | 8.52024 | 14512 ft | 337 kts | 186° |
| 2026-04-14 14:27 | 49.59296 | 8.51729 | 14968 ft | 339 kts | 186° |
| 2026-04-14 14:27 | 49.56938 | 8.51407 | 15385 ft | 341 kts | 186° |
| 2026-04-14 14:27 | 49.54567 | 8.51085 | 15779 ft | 344 kts | 186° |
| 2026-04-14 14:28 | 49.52176 | 8.50783 | 16168 ft | 345 kts | 186° |
| 2026-04-14 14:28 | 49.49777 | 8.50465 | 16550 ft | 347 kts | 186° |
| 2026-04-14 14:28 | 49.47366 | 8.50129 | 16895 ft | 349 kts | 186° |
| 2026-04-14 14:28 | 49.44935 | 8.49821 | 17257 ft | 351 kts | 186° |
| 2026-04-14 14:29 | 49.42493 | 8.49508 | 17638 ft | 352 kts | 186° |
| 2026-04-14 14:29 | 49.40046 | 8.49179 | 17980 ft | 354 kts | 186° |
| 2026-04-14 14:29 | 49.37582 | 8.48844 | 18319 ft | 356 kts | 186° |
| 2026-04-14 14:29 | 49.35107 | 8.48509 | 18663 ft | 358 kts | 186° |
| 2026-04-14 14:30 | 49.32615 | 8.48204 | 18991 ft | 360 kts | 186° |
| 2026-04-14 14:30 | 49.30149 | 8.47888 | 19321 ft | 362 kts | 186° |
| 2026-04-14 14:30 | 49.27601 | 8.47546 | 19637 ft | 363 kts | 186° |
| 2026-04-14 14:30 | 49.25112 | 8.47215 | 19953 ft | 365 kts | 186° |
| 2026-04-14 14:31 | 49.22573 | 8.46907 | 20262 ft | 367 kts | 186° |
| 2026-04-14 14:31 | 49.20025 | 8.46570 | 20582 ft | 368 kts | 186° |
| 2026-04-14 14:31 | 49.17468 | 8.46227 | 20892 ft | 370 kts | 186° |
| 2026-04-14 14:31 | 49.14897 | 8.45880 | 21170 ft | 371 kts | 186° |
| 2026-04-14 14:32 | 49.12315 | 8.45559 | 21442 ft | 373 kts | 186° |
| 2026-04-14 14:32 | 49.09722 | 8.45230 | 21719 ft | 375 kts | 186° |
| 2026-04-14 14:32 | 49.07968 | 8.44995 | 21912 ft | 375 kts | 186° |
| 2026-04-14 14:32 | 49.05370 | 8.44493 | 22107 ft | 378 kts | 191° |
| 2026-04-14 14:33 | 49.02807 | 8.43720 | 22172 ft | 372 kts | 193° |
| 2026-04-14 14:33 | 49.00286 | 8.42838 | 22197 ft | 372 kts | 194° |
| 2026-04-14 14:33 | 48.97770 | 8.41912 | 22192 ft | 373 kts | 194° |
| 2026-04-14 14:33 | 48.95246 | 8.41000 | 22204 ft | 372 kts | 194° |
| 2026-04-14 14:34 | 48.90243 | 8.39199 | 22209 ft | 372 kts | 194° |
| 2026-04-14 14:34 | 48.87718 | 8.38301 | 22200 ft | 373 kts | 194° |
| 2026-04-14 14:34 | 48.85180 | 8.37439 | 22210 ft | 373 kts | 194° |
| 2026-04-14 14:35 | 48.82646 | 8.36570 | 22221 ft | 373 kts | 194° |
| 2026-04-14 14:35 | 48.80224 | 8.35233 | 22226 ft | 372 kts | 213° |
| 2026-04-14 14:35 | 48.78314 | 8.32616 | 22239 ft | 372 kts | 230° |
| 2026-04-14 14:35 | 48.76770 | 8.29459 | 22233 ft | 373 kts | 236° |
| 2026-04-14 14:36 | 48.75415 | 8.26118 | 22231 ft | 372 kts | 240° |
| 2026-04-14 14:36 | 48.74158 | 8.22691 | 22228 ft | 373 kts | 241° |
| 2026-04-14 14:36 | 48.72940 | 8.19226 | 22216 ft | 373 kts | 242° |
| 2026-04-14 14:36 | 48.71736 | 8.15743 | 22225 ft | 373 kts | 242° |
| 2026-04-14 14:37 | 48.70536 | 8.12260 | 22218 ft | 373 kts | 242° |
| 2026-04-14 14:37 | 48.69318 | 8.08797 | 22210 ft | 373 kts | 242° |
| 2026-04-14 14:37 | 48.68094 | 8.05333 | 22218 ft | 373 kts | 242° |
| 2026-04-14 14:37 | 48.66853 | 8.01886 | 22217 ft | 373 kts | 241° |
| 2026-04-14 14:38 | 48.65590 | 7.98446 | 22206 ft | 375 kts | 240° |
| 2026-04-14 14:38 | 48.64331 | 7.94991 | 22212 ft | 375 kts | 241° |
| 2026-04-14 14:38 | 48.63085 | 7.91535 | 22206 ft | 375 kts | 241° |
| 2026-04-14 14:38 | 48.61838 | 7.88080 | 22213 ft | 374 kts | 241° |
| 2026-04-14 14:39 | 48.60570 | 7.84643 | 22211 ft | 374 kts | 240° |
| 2026-04-14 14:39 | 48.59313 | 7.81197 | 22217 ft | 375 kts | 241° |
| 2026-04-14 14:39 | 48.58061 | 7.77747 | 22210 ft | 375 kts | 241° |
| 2026-04-14 14:39 | 48.56786 | 7.74302 | 22211 ft | 375 kts | 241° |
| 2026-04-14 14:40 | 48.55524 | 7.70854 | 22216 ft | 375 kts | 241° |
| 2026-04-14 14:40 | 48.54269 | 7.67405 | 22210 ft | 375 kts | 241° |
| 2026-04-14 14:40 | 48.52995 | 7.63975 | 22215 ft | 375 kts | 240° |
| 2026-04-14 14:40 | 48.51709 | 7.60558 | 22213 ft | 374 kts | 237° |
| 2026-04-14 14:41 | 48.49900 | 7.57766 | 22222 ft | 375 kts | 214° |
| 2026-04-14 14:41 | 48.47613 | 7.55858 | 22218 ft | 377 kts | 206° |
| 2026-04-14 14:41 | 48.45202 | 7.54291 | 22217 ft | 378 kts | 202° |
| 2026-04-14 14:41 | 48.42734 | 7.52928 | 22225 ft | 378 kts | 200° |
| 2026-04-14 14:42 | 48.40244 | 7.51679 | 22221 ft | 377 kts | 199° |
| 2026-04-14 14:42 | 48.37747 | 7.50443 | 22211 ft | 378 kts | 199° |
| 2026-04-14 14:42 | 48.35249 | 7.49205 | 22211 ft | 378 kts | 199° |
| 2026-04-14 14:42 | 48.32757 | 7.47942 | 22208 ft | 378 kts | 200° |
| 2026-04-14 14:43 | 48.30268 | 7.46661 | 22205 ft | 378 kts | 200° |
| 2026-04-14 14:43 | 48.27782 | 7.45374 | 22191 ft | 378 kts | 200° |
| 2026-04-14 14:43 | 48.25294 | 7.44085 | 22194 ft | 378 kts | 200° |
| 2026-04-14 14:43 | 48.22812 | 7.42797 | 22194 ft | 378 kts | 200° |
| 2026-04-14 14:44 | 48.20325 | 7.41509 | 22188 ft | 378 kts | 200° |
| 2026-04-14 14:44 | 48.17842 | 7.40218 | 22187 ft | 378 kts | 200° |
| 2026-04-14 14:44 | 48.15356 | 7.38931 | 22184 ft | 378 kts | 200° |
| 2026-04-14 14:44 | 48.12870 | 7.37644 | 22184 ft | 378 kts | 200° |
| 2026-04-14 14:45 | 48.10384 | 7.36357 | 22183 ft | 378 kts | 200° |
| 2026-04-14 14:45 | 48.07896 | 7.35070 | 22183 ft | 378 kts | 200° |
| 2026-04-14 14:45 | 48.05445 | 7.33802 | 22183 ft | 378 kts | 200° |
| 2026-04-14 14:45 | 48.02962 | 7.32518 | 22182 ft | 378 kts | 200° |
| 2026-04-14 14:46 | 48.00479 | 7.31235 | 22183 ft | 378 kts | 200° |
| 2026-04-14 14:46 | 47.97994 | 7.29951 | 22182 ft | 378 kts | 200° |
| 2026-04-14 14:46 | 47.95508 | 7.28661 | 22182 ft | 379 kts | 200° |
| 2026-04-14 14:46 | 47.93020 | 7.27366 | 22181 ft | 379 kts | 200° |
| 2026-04-14 14:47 | 47.90531 | 7.26071 | 22185 ft | 378 kts | 200° |
| 2026-04-14 14:47 | 47.88039 | 7.24812 | 22184 ft | 378 kts | 199° |
| 2026-04-14 14:47 | 47.85547 | 7.23560 | 22185 ft | 378 kts | 200° |
| 2026-04-14 14:47 | 47.83057 | 7.22275 | 22186 ft | 379 kts | 200° |
| 2026-04-14 14:48 | 47.80553 | 7.21013 | 21908 ft | 382 kts | 199° |
| 2026-04-14 14:48 | 47.78048 | 7.19757 | 21401 ft | 378 kts | 200° |
| 2026-04-14 14:48 | 47.75573 | 7.18483 | 20902 ft | 376 kts | 200° |
| 2026-04-14 14:48 | 47.73106 | 7.17238 | 20403 ft | 373 kts | 199° |
| 2026-04-14 14:49 | 47.70659 | 7.16005 | 19902 ft | 370 kts | 200° |
| 2026-04-14 14:49 | 47.68234 | 7.14766 | 19402 ft | 368 kts | 200° |
| 2026-04-14 14:49 | 47.65849 | 7.13434 | 18897 ft | 364 kts | 208° |
| 2026-04-14 14:49 | 47.63892 | 7.11120 | 18410 ft | 360 kts | 228° |
| 2026-04-14 14:50 | 47.62284 | 7.08287 | 17917 ft | 358 kts | 232° |
| 2026-04-14 14:50 | 47.60760 | 7.05392 | 17426 ft | 355 kts | 233° |
| 2026-04-14 14:50 | 47.59296 | 7.02463 | 16928 ft | 353 kts | 234° |
| 2026-04-14 14:50 | 47.57660 | 6.99787 | 16423 ft | 351 kts | 216° |
| 2026-04-14 14:51 | 47.55442 | 6.98346 | 15938 ft | 351 kts | 191° |
| 2026-04-14 14:51 | 47.53021 | 6.98425 | 15458 ft | 350 kts | 166° |
| 2026-04-14 14:51 | 47.50840 | 6.99959 | 14979 ft | 349 kts | 142° |
| 2026-04-14 14:51 | 47.49273 | 7.02651 | 14504 ft | 347 kts | 118° |
| 2026-04-14 14:52 | 47.48566 | 7.06028 | 14030 ft | 344 kts | 97° |
| 2026-04-14 14:52 | 47.48321 | 7.09538 | 13544 ft | 342 kts | 96° |
| 2026-04-14 14:52 | 47.48074 | 7.13010 | 13051 ft | 339 kts | 97° |
| 2026-04-14 14:52 | 47.47472 | 7.16294 | 12556 ft | 336 kts | 118° |
| 2026-04-14 14:53 | 47.46171 | 7.19139 | 12064 ft | 333 kts | 123° |
| 2026-04-14 14:53 | 47.45097 | 7.22158 | 11574 ft | 332 kts | 115° |
| 2026-04-14 14:53 | 47.44123 | 7.25235 | 11076 ft | 329 kts | 116° |
| 2026-04-14 14:53 | 47.43084 | 7.28224 | 10570 ft | 326 kts | 118° |
| 2026-04-14 14:54 | 47.41994 | 7.31141 | 10077 ft | 323 kts | 119° |
| 2026-04-14 14:54 | 47.40878 | 7.34010 | 9567 ft | 321 kts | 120° |
| 2026-04-14 14:54 | 47.39743 | 7.36827 | 9068 ft | 319 kts | 120° |
| 2026-04-14 14:54 | 47.38601 | 7.39626 | 8554 ft | 317 kts | 120° |
| 2026-04-14 14:55 | 47.37488 | 7.42404 | 8065 ft | 312 kts | 120° |
| 2026-04-14 14:55 | 47.36399 | 7.45113 | 7550 ft | 294 kts | 120° |
| 2026-04-14 14:55 | 47.35404 | 7.47589 | 7034 ft | 274 kts | 120° |
| 2026-04-14 14:55 | 47.34435 | 7.49996 | 6530 ft | 272 kts | 120° |
| 2026-04-14 14:56 | 47.32500 | 7.54768 | 5960 ft | 275 kts | 120° |
| 2026-04-14 14:56 | 47.31522 | 7.57168 | 5907 ft | 273 kts | 120° |
| 2026-04-14 14:56 | 47.30867 | 7.59761 | 5883 ft | 270 kts | 92° |
| 2026-04-14 14:57 | 47.31255 | 7.62392 | 5889 ft | 260 kts | 58° |
| 2026-04-14 14:57 | 47.32481 | 7.64141 | 5884 ft | 235 kts | 24° |
| 2026-04-14 14:57 | 47.33918 | 7.64847 | 5883 ft | 209 kts | 18° |
| 2026-04-14 14:57 | 47.35262 | 7.65647 | 5871 ft | 209 kts | 26° |
| 2026-04-14 14:58 | 47.36549 | 7.66643 | 5863 ft | 209 kts | 21° |
| 2026-04-14 14:58 | 47.38011 | 7.66780 | 5892 ft | 217 kts | 348° |
| 2026-04-14 14:58 | 47.39431 | 7.66154 | 5937 ft | 208 kts | 341° |
| 2026-04-14 14:58 | 47.40795 | 7.65464 | 5719 ft | 208 kts | 340° |
| 2026-04-14 14:59 | 47.42137 | 7.64620 | 5256 ft | 209 kts | 336° |
| 2026-04-14 14:59 | 47.43445 | 7.63723 | 4917 ft | 206 kts | 335° |
| 2026-04-14 14:59 | 47.44744 | 7.62821 | 4581 ft | 206 kts | 335° |
| 2026-04-14 14:59 | 47.46042 | 7.61910 | 4255 ft | 206 kts | 336° |
| 2026-04-14 15:00 | 47.47331 | 7.61013 | 3932 ft | 205 kts | 336° |
| 2026-04-14 15:00 | 47.48634 | 7.60121 | 3606 ft | 207 kts | 335° |
| 2026-04-14 15:00 | 47.49930 | 7.59215 | 3292 ft | 206 kts | 335° |
| 2026-04-14 15:00 | 47.51231 | 7.58310 | 2970 ft | 205 kts | 335° |
| 2026-04-14 15:01 | 47.52500 | 7.57424 | 2661 ft | 204 kts | 335° |
| 2026-04-14 15:01 | 47.53740 | 7.56558 | 2346 ft | 186 kts | 336° |
| 2026-04-14 15:01 | 47.54838 | 7.55788 | 2078 ft | 163 kts | 337° |
| 2026-04-14 15:01 | 47.55822 | 7.55109 | 1823 ft | 149 kts | 337° |
| 2026-04-14 15:02 | 47.56705 | 7.54505 | 1617 ft | 134 kts | 338° |
| 2026-04-14 15:02 | 47.57533 | 7.53934 | 1407 ft | 130 kts | 338° |
| 2026-04-14 15:02 | 47.58355 | 7.53372 | 1214 ft | 130 kts | 338° |
| 2026-04-14 15:02 | 47.59178 | 7.52809 | 1005 ft | 131 kts | 335° |
| 2026-04-14 15:03 | 47.59964 | 7.52240 | 900 ft | 115 kts | 336° |
| 2026-04-14 15:03 | 47.60573 | 7.51825 | 887 ft | 66 kts | 334° |
| 2026-04-14 15:03 | 47.60826 | 7.51648 | 888 ft | 32 kts | 334° |
| 2026-04-14 15:03 | 47.61024 | 7.51556 | 886 ft | 29 kts | 25° |
| 2026-04-14 15:04 | 47.61061 | 7.51780 | 886 ft | 21 kts | 143° |
| 2026-04-14 15:04 | 47.60932 | 7.51864 | 886 ft | 19 kts | 157° |
| 2026-04-14 15:04 | 47.60813 | 7.51942 | 886 ft | 18 kts | 155° |
| 2026-04-14 15:04 | 47.60704 | 7.52020 | 886 ft | 17 kts | 153° |
| 2026-04-14 15:05 | 47.60605 | 7.52090 | 886 ft | 15 kts | 160° |
| 2026-04-14 15:05 | 47.60513 | 7.52149 | 886 ft | 14 kts | 153° |
| 2026-04-14 15:05 | 47.60433 | 7.52210 | 886 ft | 12 kts | 152° |
| 2026-04-14 15:05 | 47.60361 | 7.52260 | 886 ft | 11 kts | 158° |
| 2026-04-14 15:06 | 47.60295 | 7.52305 | 887 ft | 10 kts | 150° |
| 2026-04-14 15:06 | 47.60239 | 7.52352 | 887 ft | 9 kts | 150° |
| 2026-04-14 15:06 | 47.60203 | 7.52409 | 887 ft | 8 kts | 100° |
| 2026-04-14 15:06 | 47.60175 | 7.52483 | 886 ft | 9 kts | 145° |
| 2026-04-14 15:07 | 47.60115 | 7.52530 | 886 ft | 11 kts | 155° |
| 2026-04-14 15:07 | 47.60045 | 7.52579 | 886 ft | 12 kts | 155° |
| 2026-04-14 15:07 | 47.59982 | 7.52641 | 886 ft | 0 kts | 109° |